sensor_id;sensor_type;location;lat;lon;timestamp;P1;durP1;ratioP1;P2;durP2;ratioP2
22476;SDS011;65006;51.698;-0.292;2023-06-22T00:01:50;4.45;;;2.10;;
22476;SDS011;65006;51.698;-0.292;2023-06-22T00:04:16;3.92;;;2.15;;
22476;SDS011;65006;51.698;-0.292;2023-06-22T00:06:42;4.00;;;2.22;;
22476;SDS011;65006;51.698;-0.292;2023-06-22T00:09:08;3.03;;;2.17;;
22476;SDS011;65006;51.698;-0.292;2023-06-22T00:11:35;3.33;;;2.00;;
22476;SDS011;65006;51.698;-0.292;2023-06-22T00:14:01;8.07;;;2.80;;
22476;SDS011;65006;51.698;-0.292;2023-06-22T00:16:27;7.25;;;2.50;;
22476;SDS011;65006;51.698;-0.292;2023-06-22T00:18:53;4.68;;;2.80;;
22476;SDS011;65006;51.698;-0.292;2023-06-22T00:21:19;5.63;;;2.60;;
22476;SDS011;65006;51.698;-0.292;2023-06-22T00:26:12;4.20;;;2.88;;
22476;SDS011;65006;51.698;-0.292;2023-06-22T00:28:38;5.20;;;2.75;;
22476;SDS011;65006;51.698;-0.292;2023-06-22T00:31:04;6.82;;;3.28;;
22476;SDS011;65006;51.698;-0.292;2023-06-22T00:33:30;5.20;;;2.38;;
22476;SDS011;65006;51.698;-0.292;2023-06-22T00:35:56;5.43;;;2.47;;
22476;SDS011;65006;51.698;-0.292;2023-06-22T00:38:22;4.45;;;2.65;;
22476;SDS011;65006;51.698;-0.292;2023-06-22T00:40:48;5.38;;;2.50;;
22476;SDS011;65006;51.698;-0.292;2023-06-22T00:43:15;7.88;;;2.67;;
22476;SDS011;65006;51.698;-0.292;2023-06-22T00:45:40;5.45;;;2.40;;
22476;SDS011;65006;51.698;-0.292;2023-06-22T00:48:06;6.95;;;2.67;;
22476;SDS011;65006;51.698;-0.292;2023-06-22T00:50:33;6.30;;;2.50;;
22476;SDS011;65006;51.698;-0.292;2023-06-22T00:53:04;5.18;;;2.95;;
22476;SDS011;65006;51.698;-0.292;2023-06-22T00:55:34;7.03;;;2.78;;
22476;SDS011;65006;51.698;-0.292;2023-06-22T00:58:03;5.25;;;2.90;;
22476;SDS011;65006;51.698;-0.292;2023-06-22T01:00:30;4.50;;;2.55;;
22476;SDS011;65006;51.698;-0.292;2023-06-22T01:02:57;4.35;;;2.38;;
22476;SDS011;65006;51.698;-0.292;2023-06-22T01:05:23;5.38;;;2.53;;
22476;SDS011;65006;51.698;-0.292;2023-06-22T01:15:51;6.10;;;2.97;;
22476;SDS011;65006;51.698;-0.292;2023-06-22T01:18:19;6.28;;;2.95;;
22476;SDS011;65006;51.698;-0.292;2023-06-22T01:20:51;7.43;;;2.78;;
22476;SDS011;65006;51.698;-0.292;2023-06-22T01:25:50;5.40;;;2.67;;
22476;SDS011;65006;51.698;-0.292;2023-06-22T01:30:57;5.47;;;2.50;;
22476;SDS011;65006;51.698;-0.292;2023-06-22T01:33:32;4.20;;;2.90;;
22476;SDS011;65006;51.698;-0.292;2023-06-22T01:35:59;5.63;;;2.70;;
22476;SDS011;65006;51.698;-0.292;2023-06-22T01:40:51;4.63;;;2.75;;
22476;SDS011;65006;51.698;-0.292;2023-06-22T01:43:18;4.13;;;2.67;;
22476;SDS011;65006;51.698;-0.292;2023-06-22T01:48:10;7.50;;;2.90;;
22476;SDS011;65006;51.698;-0.292;2023-06-22T01:50:36;3.88;;;2.53;;
22476;SDS011;65006;51.698;-0.292;2023-06-22T01:53:02;5.88;;;2.88;;
22476;SDS011;65006;51.698;-0.292;2023-06-22T01:55:30;5.00;;;3.00;;
22476;SDS011;65006;51.698;-0.292;2023-06-22T01:57:56;5.85;;;2.78;;
22476;SDS011;65006;51.698;-0.292;2023-06-22T02:00:22;5.53;;;2.67;;
22476;SDS011;65006;51.698;-0.292;2023-06-22T02:05:19;7.18;;;3.17;;
22476;SDS011;65006;51.698;-0.292;2023-06-22T02:07:46;6.75;;;2.72;;
22476;SDS011;65006;51.698;-0.292;2023-06-22T02:10:14;4.60;;;2.58;;
22476;SDS011;65006;51.698;-0.292;2023-06-22T02:12:41;5.18;;;2.90;;
22476;SDS011;65006;51.698;-0.292;2023-06-22T02:15:08;6.43;;;3.15;;
22476;SDS011;65006;51.698;-0.292;2023-06-22T02:17:35;6.65;;;3.08;;
22476;SDS011;65006;51.698;-0.292;2023-06-22T02:20:04;6.97;;;2.80;;
22476;SDS011;65006;51.698;-0.292;2023-06-22T02:22:32;4.65;;;3.17;;
22476;SDS011;65006;51.698;-0.292;2023-06-22T02:24:58;8.43;;;3.42;;
22476;SDS011;65006;51.698;-0.292;2023-06-22T02:27:24;6.75;;;3.53;;
22476;SDS011;65006;51.698;-0.292;2023-06-22T02:29:50;7.22;;;3.15;;
22476;SDS011;65006;51.698;-0.292;2023-06-22T02:32:16;5.28;;;3.17;;
22476;SDS011;65006;51.698;-0.292;2023-06-22T02:34:43;8.88;;;3.58;;
22476;SDS011;65006;51.698;-0.292;2023-06-22T02:37:12;7.03;;;3.00;;
22476;SDS011;65006;51.698;-0.292;2023-06-22T02:39:39;6.38;;;3.55;;
22476;SDS011;65006;51.698;-0.292;2023-06-22T02:42:06;5.88;;;3.33;;
22476;SDS011;65006;51.698;-0.292;2023-06-22T02:44:32;7.70;;;3.00;;
22476;SDS011;65006;51.698;-0.292;2023-06-22T02:46:58;6.18;;;3.03;;
22476;SDS011;65006;51.698;-0.292;2023-06-22T02:49:24;8.23;;;3.65;;
22476;SDS011;65006;51.698;-0.292;2023-06-22T02:51:50;4.80;;;3.40;;
22476;SDS011;65006;51.698;-0.292;2023-06-22T02:54:16;5.82;;;3.30;;
22476;SDS011;65006;51.698;-0.292;2023-06-22T02:56:42;6.00;;;3.42;;
22476;SDS011;65006;51.698;-0.292;2023-06-22T02:59:09;12.23;;;3.28;;
22476;SDS011;65006;51.698;-0.292;2023-06-22T03:01:36;5.22;;;3.28;;
22476;SDS011;65006;51.698;-0.292;2023-06-22T03:04:08;7.05;;;3.22;;
22476;SDS011;65006;51.698;-0.292;2023-06-22T03:06:34;6.00;;;3.55;;
22476;SDS011;65006;51.698;-0.292;2023-06-22T03:09:01;5.03;;;3.13;;
22476;SDS011;65006;51.698;-0.292;2023-06-22T03:11:28;8.88;;;3.88;;
22476;SDS011;65006;51.698;-0.292;2023-06-22T03:13:54;7.93;;;3.53;;
22476;SDS011;65006;51.698;-0.292;2023-06-22T03:16:21;6.47;;;3.60;;
22476;SDS011;65006;51.698;-0.292;2023-06-22T03:18:47;5.60;;;3.33;;
22476;SDS011;65006;51.698;-0.292;2023-06-22T03:21:13;6.43;;;3.20;;
22476;SDS011;65006;51.698;-0.292;2023-06-22T03:23:40;6.00;;;3.28;;
22476;SDS011;65006;51.698;-0.292;2023-06-22T03:26:06;4.50;;;2.65;;
22476;SDS011;65006;51.698;-0.292;2023-06-22T03:28:32;7.75;;;3.83;;
22476;SDS011;65006;51.698;-0.292;2023-06-22T03:30:58;7.60;;;3.45;;
22476;SDS011;65006;51.698;-0.292;2023-06-22T03:33:24;5.93;;;3.70;;
22476;SDS011;65006;51.698;-0.292;2023-06-22T03:35:50;5.30;;;3.75;;
22476;SDS011;65006;51.698;-0.292;2023-06-22T03:38:16;5.97;;;3.38;;
22476;SDS011;65006;51.698;-0.292;2023-06-22T03:40:42;6.85;;;3.70;;
22476;SDS011;65006;51.698;-0.292;2023-06-22T03:43:08;5.85;;;3.72;;
22476;SDS011;65006;51.698;-0.292;2023-06-22T03:45:34;5.65;;;3.28;;
22476;SDS011;65006;51.698;-0.292;2023-06-22T03:48:00;5.15;;;3.53;;
22476;SDS011;65006;51.698;-0.292;2023-06-22T03:50:27;8.48;;;3.28;;
22476;SDS011;65006;51.698;-0.292;2023-06-22T03:52:53;4.50;;;3.40;;
22476;SDS011;65006;51.698;-0.292;2023-06-22T03:55:19;6.60;;;3.67;;
22476;SDS011;65006;51.698;-0.292;2023-06-22T03:57:45;7.13;;;4.00;;
22476;SDS011;65006;51.698;-0.292;2023-06-22T04:00:12;9.32;;;3.72;;
22476;SDS011;65006;51.698;-0.292;2023-06-22T04:02:38;5.35;;;2.95;;
22476;SDS011;65006;51.698;-0.292;2023-06-22T04:05:04;6.40;;;3.30;;
22476;SDS011;65006;51.698;-0.292;2023-06-22T04:07:30;10.95;;;3.65;;
22476;SDS011;65006;51.698;-0.292;2023-06-22T04:09:56;6.45;;;3.33;;
22476;SDS011;65006;51.698;-0.292;2023-06-22T04:12:22;5.97;;;3.40;;
22476;SDS011;65006;51.698;-0.292;2023-06-22T04:14:48;5.78;;;3.13;;
22476;SDS011;65006;51.698;-0.292;2023-06-22T04:17:14;7.18;;;3.50;;
22476;SDS011;65006;51.698;-0.292;2023-06-22T04:19:40;7.43;;;3.33;;
22476;SDS011;65006;51.698;-0.292;2023-06-22T04:22:06;6.47;;;3.15;;
22476;SDS011;65006;51.698;-0.292;2023-06-22T04:24:33;3.92;;;2.70;;
22476;SDS011;65006;51.698;-0.292;2023-06-22T04:26:59;6.30;;;3.15;;
22476;SDS011;65006;51.698;-0.292;2023-06-22T04:29:27;4.43;;;2.92;;
22476;SDS011;65006;51.698;-0.292;2023-06-22T04:31:55;7.43;;;3.25;;
22476;SDS011;65006;51.698;-0.292;2023-06-22T04:34:23;5.93;;;3.40;;
22476;SDS011;65006;51.698;-0.292;2023-06-22T04:36:51;4.63;;;3.25;;
22476;SDS011;65006;51.698;-0.292;2023-06-22T04:39:17;8.38;;;3.40;;
22476;SDS011;65006;51.698;-0.292;2023-06-22T04:41:43;7.18;;;3.40;;
22476;SDS011;65006;51.698;-0.292;2023-06-22T04:46:37;7.85;;;3.75;;
22476;SDS011;65006;51.698;-0.292;2023-06-22T04:49:07;5.30;;;2.92;;
22476;SDS011;65006;51.698;-0.292;2023-06-22T04:51:44;6.32;;;2.95;;
22476;SDS011;65006;51.698;-0.292;2023-06-22T04:54:10;3.88;;;3.13;;
22476;SDS011;65006;51.698;-0.292;2023-06-22T04:56:36;5.13;;;2.70;;
22476;SDS011;65006;51.698;-0.292;2023-06-22T04:59:02;6.38;;;3.35;;
22476;SDS011;65006;51.698;-0.292;2023-06-22T05:01:28;5.55;;;3.67;;
22476;SDS011;65006;51.698;-0.292;2023-06-22T05:03:57;5.05;;;3.10;;
22476;SDS011;65006;51.698;-0.292;2023-06-22T05:06:26;5.40;;;3.03;;
22476;SDS011;65006;51.698;-0.292;2023-06-22T05:08:53;5.70;;;3.22;;
22476;SDS011;65006;51.698;-0.292;2023-06-22T05:11:23;6.07;;;2.95;;
22476;SDS011;65006;51.698;-0.292;2023-06-22T05:13:49;5.95;;;3.25;;
22476;SDS011;65006;51.698;-0.292;2023-06-22T05:16:15;8.80;;;4.10;;
22476;SDS011;65006;51.698;-0.292;2023-06-22T05:18:41;6.63;;;3.40;;
22476;SDS011;65006;51.698;-0.292;2023-06-22T05:21:08;5.32;;;3.28;;
22476;SDS011;65006;51.698;-0.292;2023-06-22T05:23:34;6.75;;;3.95;;
22476;SDS011;65006;51.698;-0.292;2023-06-22T05:26:00;7.45;;;3.35;;
22476;SDS011;65006;51.698;-0.292;2023-06-22T05:28:26;7.22;;;3.20;;
22476;SDS011;65006;51.698;-0.292;2023-06-22T05:30:52;7.03;;;3.20;;
22476;SDS011;65006;51.698;-0.292;2023-06-22T05:33:18;5.25;;;3.45;;
22476;SDS011;65006;51.698;-0.292;2023-06-22T05:35:44;8.68;;;3.53;;
22476;SDS011;65006;51.698;-0.292;2023-06-22T05:38:10;5.38;;;3.03;;
22476;SDS011;65006;51.698;-0.292;2023-06-22T05:40:36;5.00;;;3.00;;
22476;SDS011;65006;51.698;-0.292;2023-06-22T05:43:02;5.72;;;3.30;;
22476;SDS011;65006;51.698;-0.292;2023-06-22T05:45:28;4.25;;;2.97;;
22476;SDS011;65006;51.698;-0.292;2023-06-22T05:47:54;6.15;;;3.30;;
22476;SDS011;65006;51.698;-0.292;2023-06-22T05:50:20;4.88;;;2.67;;
22476;SDS011;65006;51.698;-0.292;2023-06-22T05:52:46;5.60;;;3.22;;
22476;SDS011;65006;51.698;-0.292;2023-06-22T05:55:12;5.20;;;3.10;;
22476;SDS011;65006;51.698;-0.292;2023-06-22T05:57:38;8.95;;;2.78;;
22476;SDS011;65006;51.698;-0.292;2023-06-22T06:00:05;6.65;;;3.22;;
22476;SDS011;65006;51.698;-0.292;2023-06-22T06:02:35;5.55;;;3.17;;
22476;SDS011;65006;51.698;-0.292;2023-06-22T06:05:01;8.50;;;3.20;;
22476;SDS011;65006;51.698;-0.292;2023-06-22T06:09:54;5.07;;;2.83;;
22476;SDS011;65006;51.698;-0.292;2023-06-22T06:12:20;4.68;;;3.05;;
22476;SDS011;65006;51.698;-0.292;2023-06-22T06:14:46;4.10;;;2.78;;
22476;SDS011;65006;51.698;-0.292;2023-06-22T06:17:12;4.43;;;3.03;;
22476;SDS011;65006;51.698;-0.292;2023-06-22T06:19:38;9.85;;;3.03;;
22476;SDS011;65006;51.698;-0.292;2023-06-22T06:22:04;6.85;;;2.95;;
22476;SDS011;65006;51.698;-0.292;2023-06-22T06:24:30;6.78;;;2.88;;
22476;SDS011;65006;51.698;-0.292;2023-06-22T06:26:56;5.53;;;2.90;;
22476;SDS011;65006;51.698;-0.292;2023-06-22T06:29:22;6.70;;;3.15;;
22476;SDS011;65006;51.698;-0.292;2023-06-22T06:31:48;7.88;;;3.25;;
22476;SDS011;65006;51.698;-0.292;2023-06-22T06:34:14;5.68;;;3.20;;
22476;SDS011;65006;51.698;-0.292;2023-06-22T06:36:40;5.13;;;2.63;;
22476;SDS011;65006;51.698;-0.292;2023-06-22T06:39:07;5.70;;;2.70;;
22476;SDS011;65006;51.698;-0.292;2023-06-22T06:41:33;5.85;;;2.30;;
22476;SDS011;65006;51.698;-0.292;2023-06-22T06:43:59;5.03;;;3.28;;
22476;SDS011;65006;51.698;-0.292;2023-06-22T06:46:25;4.20;;;2.70;;
22476;SDS011;65006;51.698;-0.292;2023-06-22T06:48:51;5.95;;;3.25;;
22476;SDS011;65006;51.698;-0.292;2023-06-22T06:51:17;7.97;;;2.97;;
22476;SDS011;65006;51.698;-0.292;2023-06-22T06:53:43;5.93;;;2.63;;
22476;SDS011;65006;51.698;-0.292;2023-06-22T06:56:09;10.05;;;3.17;;
22476;SDS011;65006;51.698;-0.292;2023-06-22T06:58:35;5.30;;;2.85;;
22476;SDS011;65006;51.698;-0.292;2023-06-22T07:01:02;7.95;;;3.53;;
22476;SDS011;65006;51.698;-0.292;2023-06-22T07:03:28;7.50;;;2.97;;
22476;SDS011;65006;51.698;-0.292;2023-06-22T07:05:54;8.70;;;3.17;;
22476;SDS011;65006;51.698;-0.292;2023-06-22T07:08:21;4.43;;;2.55;;
22476;SDS011;65006;51.698;-0.292;2023-06-22T07:10:47;8.20;;;2.90;;
22476;SDS011;65006;51.698;-0.292;2023-06-22T07:13:13;10.40;;;3.78;;
22476;SDS011;65006;51.698;-0.292;2023-06-22T07:15:39;9.57;;;3.42;;
22476;SDS011;65006;51.698;-0.292;2023-06-22T07:18:05;7.47;;;3.13;;
22476;SDS011;65006;51.698;-0.292;2023-06-22T07:20:31;7.45;;;2.60;;
22476;SDS011;65006;51.698;-0.292;2023-06-22T07:22:57;8.73;;;2.63;;
22476;SDS011;65006;51.698;-0.292;2023-06-22T07:25:23;11.40;;;2.65;;
22476;SDS011;65006;51.698;-0.292;2023-06-22T07:27:59;5.90;;;2.22;;
22476;SDS011;65006;51.698;-0.292;2023-06-22T07:30:26;5.68;;;2.35;;
22476;SDS011;65006;51.698;-0.292;2023-06-22T07:32:53;6.82;;;3.03;;
22476;SDS011;65006;51.698;-0.292;2023-06-22T07:35:19;9.48;;;2.55;;
22476;SDS011;65006;51.698;-0.292;2023-06-22T07:37:45;3.53;;;2.50;;
22476;SDS011;65006;51.698;-0.292;2023-06-22T07:40:11;5.65;;;2.50;;
22476;SDS011;65006;51.698;-0.292;2023-06-22T07:42:37;9.30;;;3.00;;
22476;SDS011;65006;51.698;-0.292;2023-06-22T07:45:04;4.60;;;2.63;;
22476;SDS011;65006;51.698;-0.292;2023-06-22T07:47:30;6.07;;;2.92;;
22476;SDS011;65006;51.698;-0.292;2023-06-22T07:50:00;5.15;;;2.80;;
22476;SDS011;65006;51.698;-0.292;2023-06-22T07:52:27;6.38;;;2.70;;
22476;SDS011;65006;51.698;-0.292;2023-06-22T07:57:19;4.85;;;2.70;;
22476;SDS011;65006;51.698;-0.292;2023-06-22T08:02:11;5.55;;;3.08;;
22476;SDS011;65006;51.698;-0.292;2023-06-22T08:04:37;4.82;;;2.90;;
22476;SDS011;65006;51.698;-0.292;2023-06-22T08:09:30;3.60;;;2.53;;
22476;SDS011;65006;51.698;-0.292;2023-06-22T08:11:57;5.60;;;2.33;;
22476;SDS011;65006;51.698;-0.292;2023-06-22T08:14:24;3.35;;;2.60;;
22476;SDS011;65006;51.698;-0.292;2023-06-22T08:16:50;3.85;;;2.30;;
22476;SDS011;65006;51.698;-0.292;2023-06-22T08:19:16;5.63;;;2.92;;
22476;SDS011;65006;51.698;-0.292;2023-06-22T08:21:43;4.00;;;2.55;;
22476;SDS011;65006;51.698;-0.292;2023-06-22T08:24:09;3.22;;;2.35;;
22476;SDS011;65006;51.698;-0.292;2023-06-22T08:26:35;3.50;;;2.28;;
22476;SDS011;65006;51.698;-0.292;2023-06-22T08:29:02;3.35;;;2.20;;
22476;SDS011;65006;51.698;-0.292;2023-06-22T08:33:54;3.70;;;2.13;;
22476;SDS011;65006;51.698;-0.292;2023-06-22T08:36:20;3.58;;;2.28;;
22476;SDS011;65006;51.698;-0.292;2023-06-22T08:38:46;3.53;;;2.03;;
22476;SDS011;65006;51.698;-0.292;2023-06-22T08:41:17;5.88;;;2.20;;
22476;SDS011;65006;51.698;-0.292;2023-06-22T08:43:44;4.45;;;2.15;;
22476;SDS011;65006;51.698;-0.292;2023-06-22T08:46:10;2.33;;;1.88;;
22476;SDS011;65006;51.698;-0.292;2023-06-22T08:48:36;3.67;;;2.42;;
22476;SDS011;65006;51.698;-0.292;2023-06-22T08:51:02;3.97;;;2.35;;
22476;SDS011;65006;51.698;-0.292;2023-06-22T08:53:28;2.72;;;2.00;;
22476;SDS011;65006;51.698;-0.292;2023-06-22T08:55:54;3.03;;;1.73;;
22476;SDS011;65006;51.698;-0.292;2023-06-22T08:58:20;3.40;;;1.77;;
22476;SDS011;65006;51.698;-0.292;2023-06-22T09:00:47;2.58;;;1.77;;
22476;SDS011;65006;51.698;-0.292;2023-06-22T09:03:13;2.05;;;1.35;;
22476;SDS011;65006;51.698;-0.292;2023-06-22T09:05:40;2.10;;;1.55;;
22476;SDS011;65006;51.698;-0.292;2023-06-22T09:08:06;3.00;;;1.90;;
22476;SDS011;65006;51.698;-0.292;2023-06-22T09:10:32;2.78;;;1.92;;
22476;SDS011;65006;51.698;-0.292;2023-06-22T09:12:58;3.25;;;1.67;;
22476;SDS011;65006;51.698;-0.292;2023-06-22T09:15:24;4.53;;;1.80;;
22476;SDS011;65006;51.698;-0.292;2023-06-22T09:20:19;2.58;;;1.73;;
22476;SDS011;65006;51.698;-0.292;2023-06-22T09:22:45;4.50;;;2.13;;
22476;SDS011;65006;51.698;-0.292;2023-06-22T09:27:37;3.38;;;1.95;;
22476;SDS011;65006;51.698;-0.292;2023-06-22T09:30:03;3.63;;;2.10;;
22476;SDS011;65006;51.698;-0.292;2023-06-22T09:32:30;2.17;;;1.67;;
22476;SDS011;65006;51.698;-0.292;2023-06-22T09:34:57;5.20;;;2.05;;
22476;SDS011;65006;51.698;-0.292;2023-06-22T09:37:23;2.10;;;1.80;;
22476;SDS011;65006;51.698;-0.292;2023-06-22T09:39:49;10.40;;;2.00;;
22476;SDS011;65006;51.698;-0.292;2023-06-22T09:42:15;5.15;;;1.85;;
22476;SDS011;65006;51.698;-0.292;2023-06-22T09:44:41;2.55;;;1.48;;
22476;SDS011;65006;51.698;-0.292;2023-06-22T09:47:07;3.25;;;1.92;;
22476;SDS011;65006;51.698;-0.292;2023-06-22T09:49:33;2.33;;;1.67;;
22476;SDS011;65006;51.698;-0.292;2023-06-22T09:51:59;3.03;;;1.73;;
22476;SDS011;65006;51.698;-0.292;2023-06-22T09:54:25;4.47;;;1.85;;
22476;SDS011;65006;51.698;-0.292;2023-06-22T09:56:51;2.55;;;1.60;;
22476;SDS011;65006;51.698;-0.292;2023-06-22T09:59:17;2.17;;;1.65;;
22476;SDS011;65006;51.698;-0.292;2023-06-22T10:01:44;2.70;;;1.55;;
22476;SDS011;65006;51.698;-0.292;2023-06-22T10:06:36;2.42;;;1.50;;
22476;SDS011;65006;51.698;-0.292;2023-06-22T10:09:06;1.83;;;1.52;;
22476;SDS011;65006;51.698;-0.292;2023-06-22T10:11:32;1.77;;;1.42;;
22476;SDS011;65006;51.698;-0.292;2023-06-22T10:14:00;3.22;;;1.58;;
22476;SDS011;65006;51.698;-0.292;2023-06-22T10:16:32;2.47;;;1.58;;
22476;SDS011;65006;51.698;-0.292;2023-06-22T10:19:00;3.60;;;1.60;;
22476;SDS011;65006;51.698;-0.292;2023-06-22T10:21:26;2.92;;;1.48;;
22476;SDS011;65006;51.698;-0.292;2023-06-22T10:23:54;2.50;;;1.48;;
22476;SDS011;65006;51.698;-0.292;2023-06-22T10:26:20;3.80;;;1.70;;
22476;SDS011;65006;51.698;-0.292;2023-06-22T10:28:46;1.98;;;1.42;;
22476;SDS011;65006;51.698;-0.292;2023-06-22T10:31:12;4.05;;;1.42;;
22476;SDS011;65006;51.698;-0.292;2023-06-22T10:36:07;1.98;;;1.40;;
22476;SDS011;65006;51.698;-0.292;2023-06-22T10:38:33;1.88;;;1.30;;
22476;SDS011;65006;51.698;-0.292;2023-06-22T10:41:01;2.00;;;1.40;;
22476;SDS011;65006;51.698;-0.292;2023-06-22T10:43:27;5.63;;;1.50;;
22476;SDS011;65006;51.698;-0.292;2023-06-22T10:45:53;1.60;;;1.50;;
22476;SDS011;65006;51.698;-0.292;2023-06-22T10:48:19;3.10;;;1.55;;
22476;SDS011;65006;51.698;-0.292;2023-06-22T10:50:46;2.00;;;1.10;;
22476;SDS011;65006;51.698;-0.292;2023-06-22T10:53:12;1.70;;;1.40;;
22476;SDS011;65006;51.698;-0.292;2023-06-22T10:55:38;3.17;;;1.67;;
22476;SDS011;65006;51.698;-0.292;2023-06-22T10:58:04;3.08;;;1.30;;
22476;SDS011;65006;51.698;-0.292;2023-06-22T11:00:30;2.53;;;1.33;;
22476;SDS011;65006;51.698;-0.292;2023-06-22T11:02:56;3.15;;;1.42;;
22476;SDS011;65006;51.698;-0.292;2023-06-22T11:05:23;2.17;;;1.23;;
22476;SDS011;65006;51.698;-0.292;2023-06-22T11:07:49;2.47;;;1.50;;
22476;SDS011;65006;51.698;-0.292;2023-06-22T11:12:41;1.45;;;1.10;;
22476;SDS011;65006;51.698;-0.292;2023-06-22T11:15:08;1.20;;;1.10;;
22476;SDS011;65006;51.698;-0.292;2023-06-22T11:17:34;2.22;;;1.23;;
22476;SDS011;65006;51.698;-0.292;2023-06-22T11:22:34;2.50;;;1.20;;
22476;SDS011;65006;51.698;-0.292;2023-06-22T11:25:00;2.03;;;1.10;;
22476;SDS011;65006;51.698;-0.292;2023-06-22T11:29:53;2.53;;;1.83;;
22476;SDS011;65006;51.698;-0.292;2023-06-22T11:32:19;1.52;;;1.00;;
22476;SDS011;65006;51.698;-0.292;2023-06-22T11:34:45;2.70;;;1.10;;
22476;SDS011;65006;51.698;-0.292;2023-06-22T11:37:11;2.10;;;1.40;;
22476;SDS011;65006;51.698;-0.292;2023-06-22T11:39:37;2.00;;;1.20;;
22476;SDS011;65006;51.698;-0.292;2023-06-22T11:42:03;4.13;;;1.10;;
22476;SDS011;65006;51.698;-0.292;2023-06-22T11:44:29;2.60;;;1.55;;
22476;SDS011;65006;51.698;-0.292;2023-06-22T11:46:56;1.98;;;1.40;;
22476;SDS011;65006;51.698;-0.292;2023-06-22T11:49:21;4.30;;;2.00;;
22476;SDS011;65006;51.698;-0.292;2023-06-22T11:51:47;1.52;;;1.17;;
22476;SDS011;65006;51.698;-0.292;2023-06-22T11:54:13;1.90;;;1.45;;
22476;SDS011;65006;51.698;-0.292;2023-06-22T11:56:39;1.00;;;1.00;;
22476;SDS011;65006;51.698;-0.292;2023-06-22T11:59:05;2.45;;;1.35;;
22476;SDS011;65006;51.698;-0.292;2023-06-22T12:01:31;2.08;;;1.45;;
22476;SDS011;65006;51.698;-0.292;2023-06-22T12:06:24;3.65;;;1.77;;
22476;SDS011;65006;51.698;-0.292;2023-06-22T12:08:50;2.17;;;1.35;;
22476;SDS011;65006;51.698;-0.292;2023-06-22T12:11:16;2.00;;;1.20;;
22476;SDS011;65006;51.698;-0.292;2023-06-22T12:13:42;1.48;;;1.20;;
22476;SDS011;65006;51.698;-0.292;2023-06-22T12:16:07;2.67;;;1.33;;
22476;SDS011;65006;51.698;-0.292;2023-06-22T12:18:34;2.00;;;1.52;;
22476;SDS011;65006;51.698;-0.292;2023-06-22T12:21:00;2.20;;;1.20;;
22476;SDS011;65006;51.698;-0.292;2023-06-22T12:23:25;1.30;;;1.20;;
22476;SDS011;65006;51.698;-0.292;2023-06-22T12:25:51;2.58;;;1.50;;
22476;SDS011;65006;51.698;-0.292;2023-06-22T12:28:17;2.25;;;1.20;;
22476;SDS011;65006;51.698;-0.292;2023-06-22T12:30:43;1.65;;;1.20;;
22476;SDS011;65006;51.698;-0.292;2023-06-22T12:33:09;4.43;;;1.40;;
22476;SDS011;65006;51.698;-0.292;2023-06-22T12:35:35;2.30;;;1.50;;
22476;SDS011;65006;51.698;-0.292;2023-06-22T12:38:01;2.00;;;1.13;;
22476;SDS011;65006;51.698;-0.292;2023-06-22T12:40:28;3.22;;;1.60;;
22476;SDS011;65006;51.698;-0.292;2023-06-22T12:42:54;1.63;;;1.15;;
22476;SDS011;65006;51.698;-0.292;2023-06-22T12:45:20;3.65;;;1.40;;
22476;SDS011;65006;51.698;-0.292;2023-06-22T12:50:14;3.05;;;1.45;;
22476;SDS011;65006;51.698;-0.292;2023-06-22T12:52:41;3.28;;;1.38;;
22476;SDS011;65006;51.698;-0.292;2023-06-22T12:57:33;3.78;;;1.50;;
22476;SDS011;65006;51.698;-0.292;2023-06-22T12:59:59;1.85;;;1.20;;
22476;SDS011;65006;51.698;-0.292;2023-06-22T13:02:25;2.00;;;1.23;;
22476;SDS011;65006;51.698;-0.292;2023-06-22T13:04:51;1.55;;;1.30;;
22476;SDS011;65006;51.698;-0.292;2023-06-22T13:07:17;2.08;;;1.27;;
22476;SDS011;65006;51.698;-0.292;2023-06-22T13:09:43;3.33;;;1.45;;
22476;SDS011;65006;51.698;-0.292;2023-06-22T13:12:11;2.45;;;1.20;;
22476;SDS011;65006;51.698;-0.292;2023-06-22T13:14:37;3.13;;;1.40;;
22476;SDS011;65006;51.698;-0.292;2023-06-22T13:17:03;3.55;;;1.38;;
22476;SDS011;65006;51.698;-0.292;2023-06-22T13:19:29;2.33;;;1.60;;
22476;SDS011;65006;51.698;-0.292;2023-06-22T13:21:57;1.75;;;1.25;;
22476;SDS011;65006;51.698;-0.292;2023-06-22T13:26:49;3.17;;;1.40;;
22476;SDS011;65006;51.698;-0.292;2023-06-22T13:29:15;2.50;;;1.35;;
22476;SDS011;65006;51.698;-0.292;2023-06-22T13:31:41;3.33;;;1.60;;
22476;SDS011;65006;51.698;-0.292;2023-06-22T13:34:07;2.10;;;1.48;;
22476;SDS011;65006;51.698;-0.292;2023-06-22T13:36:33;2.05;;;1.35;;
22476;SDS011;65006;51.698;-0.292;2023-06-22T13:38:59;7.00;;;1.33;;
22476;SDS011;65006;51.698;-0.292;2023-06-22T13:41:25;4.25;;;1.67;;
22476;SDS011;65006;51.698;-0.292;2023-06-22T13:43:51;2.58;;;1.50;;
22476;SDS011;65006;51.698;-0.292;2023-06-22T13:46:17;1.88;;;1.20;;
22476;SDS011;65006;51.698;-0.292;2023-06-22T13:48:43;3.13;;;1.55;;
22476;SDS011;65006;51.698;-0.292;2023-06-22T13:51:09;1.77;;;1.20;;
22476;SDS011;65006;51.698;-0.292;2023-06-22T13:53:35;2.05;;;1.40;;
22476;SDS011;65006;51.698;-0.292;2023-06-22T13:56:01;2.58;;;1.85;;
22476;SDS011;65006;51.698;-0.292;2023-06-22T13:58:27;1.85;;;1.35;;
22476;SDS011;65006;51.698;-0.292;2023-06-22T14:00:53;3.28;;;1.17;;
22476;SDS011;65006;51.698;-0.292;2023-06-22T14:03:19;1.98;;;1.15;;
22476;SDS011;65006;51.698;-0.292;2023-06-22T14:05:45;4.40;;;1.40;;
22476;SDS011;65006;51.698;-0.292;2023-06-22T14:08:11;1.63;;;1.38;;
22476;SDS011;65006;51.698;-0.292;2023-06-22T14:10:37;2.20;;;1.48;;
22476;SDS011;65006;51.698;-0.292;2023-06-22T14:13:03;2.15;;;1.58;;
22476;SDS011;65006;51.698;-0.292;2023-06-22T14:15:31;4.50;;;1.73;;
22476;SDS011;65006;51.698;-0.292;2023-06-22T14:17:57;1.90;;;1.35;;
22476;SDS011;65006;51.698;-0.292;2023-06-22T14:20:23;1.63;;;1.27;;
22476;SDS011;65006;51.698;-0.292;2023-06-22T14:22:49;1.70;;;1.17;;
22476;SDS011;65006;51.698;-0.292;2023-06-22T14:25:15;1.80;;;1.13;;
22476;SDS011;65006;51.698;-0.292;2023-06-22T14:27:41;1.25;;;1.13;;
22476;SDS011;65006;51.698;-0.292;2023-06-22T14:30:07;3.40;;;1.30;;
22476;SDS011;65006;51.698;-0.292;2023-06-22T14:32:33;2.03;;;1.52;;
22476;SDS011;65006;51.698;-0.292;2023-06-22T14:34:59;2.50;;;1.35;;
22476;SDS011;65006;51.698;-0.292;2023-06-22T14:37:25;2.08;;;1.10;;
22476;SDS011;65006;51.698;-0.292;2023-06-22T14:39:51;2.58;;;1.30;;
22476;SDS011;65006;51.698;-0.292;2023-06-22T14:42:17;2.30;;;1.23;;
22476;SDS011;65006;51.698;-0.292;2023-06-22T14:44:43;1.85;;;1.10;;
22476;SDS011;65006;51.698;-0.292;2023-06-22T14:47:09;1.42;;;1.20;;
22476;SDS011;65006;51.698;-0.292;2023-06-22T14:49:35;2.13;;;1.42;;
22476;SDS011;65006;51.698;-0.292;2023-06-22T14:52:01;2.40;;;1.80;;
22476;SDS011;65006;51.698;-0.292;2023-06-22T14:54:27;4.03;;;1.65;;
22476;SDS011;65006;51.698;-0.292;2023-06-22T14:56:53;2.08;;;1.10;;
22476;SDS011;65006;51.698;-0.292;2023-06-22T14:59:19;4.45;;;1.67;;
22476;SDS011;65006;51.698;-0.292;2023-06-22T15:01:45;2.42;;;1.38;;
22476;SDS011;65006;51.698;-0.292;2023-06-22T15:04:11;1.98;;;1.42;;
22476;SDS011;65006;51.698;-0.292;2023-06-22T15:06:37;2.75;;;1.40;;
22476;SDS011;65006;51.698;-0.292;2023-06-22T15:09:03;2.00;;;1.27;;
22476;SDS011;65006;51.698;-0.292;2023-06-22T15:11:29;2.45;;;1.20;;
22476;SDS011;65006;51.698;-0.292;2023-06-22T15:13:58;2.70;;;1.85;;
22476;SDS011;65006;51.698;-0.292;2023-06-22T15:16:25;3.55;;;1.65;;
22476;SDS011;65006;51.698;-0.292;2023-06-22T15:18:51;2.80;;;1.65;;
22476;SDS011;65006;51.698;-0.292;2023-06-22T15:21:17;3.05;;;1.60;;
22476;SDS011;65006;51.698;-0.292;2023-06-22T15:23:43;3.90;;;1.30;;
22476;SDS011;65006;51.698;-0.292;2023-06-22T15:26:09;2.90;;;1.52;;
22476;SDS011;65006;51.698;-0.292;2023-06-22T15:28:35;2.47;;;1.35;;
22476;SDS011;65006;51.698;-0.292;2023-06-22T15:31:03;4.93;;;1.27;;
22476;SDS011;65006;51.698;-0.292;2023-06-22T15:33:29;2.67;;;1.20;;